Page Field
KFMY : rendu visible

Aérodrome :











RETROUVEZ-NOUS SUR...

 
LOGIN :

S'inscrire | Disclaimer

   EN    FR    IT 

 









Légende :    VFR   VFR Marginal   IFR   IFR Intensif   IFR Très Intensif
Visi : 
Plafond : 
>= 8 km
>= 3000ft
5 à 8 km
1000 à 3000 ft
1500m à 5 km
500 à 1000 ft
800 à 1500m
200 à 500 ft
< 800m
< 200 ft
Symboles :   Orages  Brouillard  Fortes neiges  Fortes précipitations  Vent > 20 kt






- Altitude de l'aérodrome : 17 ft


KFMY - Page Field

DERNIER METAR :
  • 031853Z 10007KT 060V150 10SM CLR 24/14 A3015 RMK AO2 SLP211 T02440139

METARs EXPIRÉS :
  • 031753Z 10010G19KT 10SM CLR 23/13 A3017 RMK AO2 SLP217 T02330133 10233 20094 58023
  • 031704Z 13010G17KT 10SM CLR 23/13 A3019 RMK AO2 T02330133

TAF KFMY
Valide du 03 à 18h jusqu'au 04 à 18h UTC


031720Z 0318/0418 10008KT P6SM SCT250
FM040000 09005KT P6SM SCT130 BKN250
FM041500 14008KT P6SM BKN130
FIR KZMA / Amérique du Nord



MET'MAP, la Météo Aéronautique d'un coup d'oeil ! - Copyright ORBIFLY Décembre 2007 - Disclaimer

ORBIFLY MET'MAP TEAM :

Programmation & Développement : Alexandra Zaïnal
Sur une idée originale de : Baudouin d'Aumeries
Assistance à la programmation : Marc-Olivier Méhu
Soutien technique & logistique : Manuel Goepfert

Contact : metmap@orbifly.com




SOURCES & CREDITS :

   NOAA       Earth
Advisory